Time;durP1;ratioP1;P1;durP2;ratioP2;P2;SDS_P1;SDS_P2;PMS_P1;PMS_P2;Temp;Humidity;BMP_temperature;BMP_pressure;BME280_temperature;BME280_humidity;BME280_pressure;Samples;Min_cycle;Max_cycle;Signal;HPM_P1;HPM_P2
2021/01/22 00:01:02;;;;;;;11.57;5.45;;;;;;;5.84;76.99;99631.16;4982715;28;20460;-78
2021/01/22 00:03:28;;;;;;;10.68;5.70;;;;;;;5.51;77.20;99581.66;4999959;28;20034;-79
2021/01/22 00:05:53;;;;;;;9.48;5.60;;;;;;;5.52;77.03;99574.59;4999985;28;20041;-78
2021/01/22 00:08:19;;;;;;;9.60;5.00;;;;;;;5.65;76.85;99592.41;4999804;28;20384;-76
2021/01/22 00:10:44;;;;;;;10.07;5.60;;;;;;;5.51;77.27;99583.47;5000080;28;20044;-76
2021/01/22 00:13:10;;;;;;;9.70;5.55;;;;;;;5.47;77.30;99578.31;4982581;28;20411;-74
2021/01/22 00:15:35;;;;;;;13.95;5.93;;;;;;;5.50;77.01;99556.16;4999478;28;20026;-75
2021/01/22 00:18:01;;;;;;;12.55;5.60;;;;;;;5.71;76.86;99586.81;4982903;28;20042;-76
2021/01/22 00:20:26;;;;;;;10.65;5.25;;;;;;;5.58;77.07;99574.25;4965985;28;20480;-75
2021/01/22 00:22:52;;;;;;;12.98;6.03;;;;;;;5.56;77.29;99566.41;4982493;28;20073;-76
2021/01/22 00:25:17;;;;;;;12.68;5.50;;;;;;;5.77;77.23;99605.94;4999898;28;20026;-75
2021/01/22 00:27:43;;;;;;;11.88;5.53;;;;;;;5.72;77.61;99599.09;4966026;28;20475;-75
2021/01/22 00:30:10;;;;;;;12.15;5.38;;;;;;;5.67;77.44;99581.75;4999684;28;20065;-76
2021/01/22 00:32:35;;;;;;;11.38;6.13;;;;;;;5.65;77.48;99586.25;4966119;28;20042;-79
2021/01/22 00:35:01;;;;;;;13.90;5.78;;;;;;;5.72;77.60;99599.09;4999800;28;20026;-77
2021/01/22 00:37:26;;;;;;;11.57;5.55;;;;;;;5.67;77.61;99577.28;4999522;28;20480;-78
2021/01/22 00:39:52;;;;;;;11.32;5.28;;;;;;;5.65;77.25;99581.81;4999785;28;20038;-77
2021/01/22 00:42:17;;;;;;;10.75;5.35;;;;;;;5.75;77.31;99588.34;4966373;28;20486;-76
2021/01/22 00:44:43;;;;;;;13.65;5.70;;;;;;;5.66;77.42;99583.53;4982062;28;20483;-77
2021/01/22 00:47:08;;;;;;;14.27;5.60;;;;;;;5.43;77.63;99533.59;4999957;28;20069;-77
2021/01/22 00:49:34;;;;;;;12.32;5.45;;;;;;;5.69;77.63;99574.56;4965646;28;20040;-77
2021/01/22 00:52:00;;;;;;;10.98;5.57;;;;;;;5.75;77.38;99571.63;4982250;28;20039;-79
2021/01/22 00:54:25;;;;;;;9.98;5.90;;;;;;;5.85;77.08;99570.22;4999206;28;20037;-78
2021/01/22 00:56:51;;;;;;;12.38;5.60;;;;;;;5.77;76.96;99553.88;4999531;28;20474;-77
2021/01/22 00:59:16;;;;;;;9.00;5.05;;;;;;;5.94;76.54;99568.91;4982226;28;20088;-78
2021/01/22 01:01:42;;;;;;;12.23;5.68;;;;;;;5.88;76.69;99556.81;4999139;28;20041;-78
2021/01/22 01:04:07;;;;;;;10.95;5.68;;;;;;;5.64;76.21;99505.16;4982041;28;20514;-74
2021/01/22 01:06:33;;;;;;;10.90;5.55;;;;;;;5.72;76.63;99530.31;4999190;28;20446;-74
2021/01/22 01:08:58;;;;;;;13.65;6.00;;;;;;;5.64;76.22;99498.09;4996903;28;20035;-75
2021/01/22 01:11:24;;;;;;;11.15;6.35;;;;;;;6.12;76.04;99552.06;4979163;28;20403;-75
2021/01/22 01:13:50;;;;;;;12.43;6.65;;;;;;;6.19;75.62;99544.66;4979003;28;20085;-73
2021/01/22 01:16:15;;;;;;;11.35;5.70;;;;;;;6.24;75.48;99532.88;4996384;28;20034;-73
2021/01/22 01:18:41;;;;;;;13.35;6.13;;;;;;;6.23;75.14;99520.56;4995811;28;20030;-74
2021/01/22 01:21:06;;;;;;;12.75;5.90;;;;;;;6.44;74.74;99530.94;4962663;28;20071;-76
2021/01/22 01:23:32;;;;;;;11.82;5.97;;;;;;;6.46;74.83;99518.44;4995730;28;20057;-74
2021/01/22 01:25:57;;;;;;;12.00;5.90;;;;;;;6.50;74.25;99517.38;4962718;28;20439;-75
2021/01/22 01:28:23;;;;;;;11.55;5.95;;;;;;;6.48;74.43;99524.56;4962659;28;20042;-74
2021/01/22 01:30:48;;;;;;;12.85;6.25;;;;;;;6.38;74.52;99503.00;4978794;28;20118;-76
2021/01/22 01:33:14;;;;;;;12.68;6.05;;;;;;;6.52;74.27;99510.19;4996334;28;20041;-76
2021/01/22 01:35:39;;;;;;;10.40;5.65;;;;;;;6.50;73.87;99491.72;4978213;28;20069;-78
2021/01/22 01:38:05;;;;;;;10.18;5.53;;;;;;;6.54;74.11;99513.59;4978362;28;20054;-77
2021/01/22 01:40:30;;;;;;;10.60;5.65;;;;;;;6.33;73.94;99478.56;4995596;28;20084;-77
2021/01/22 01:42:56;;;;;;;13.23;6.53;;;;;;;6.53;73.82;99509.25;4995926;28;20149;-77
2021/01/22 01:45:21;;;;;;;12.85;6.15;;;;;;;6.47;73.59;99502.50;4978560;28;20034;-77
2021/01/22 01:47:47;;;;;;;12.13;5.90;;;;;;;6.62;73.59;99519.31;4995511;28;20899;-75
2021/01/22 01:50:13;;;;;;;15.10;6.20;;;;;;;6.48;73.71;99492.75;4978243;28;20403;-81
2021/01/22 01:52:39;;;;;;;12.77;6.05;;;;;;;6.49;73.88;99502.41;4978176;28;20089;-81
2021/01/22 01:55:06;;;;;;;12.57;6.18;;;;;;;6.49;73.90;99505.91;4978295;28;20042;-81
2021/01/22 01:57:32;;;;;;;11.13;6.22;;;;;;;6.51;74.06;99506.69;4995481;28;20030;-80
2021/01/22 01:59:59;;;;;;;11.05;5.85;;;;;;;6.46;74.53;99505.22;4995639;28;20042;-82
2021/01/22 02:02:24;;;;;;;10.77;6.15;;;;;;;6.37;74.68;99496.00;4962009;28;20042;-82
2021/01/22 02:04:50;;;;;;;13.93;6.15;;;;;;;6.39;74.92;99499.41;4995086;28;20475;-80
2021/01/22 02:07:15;;;;;;;11.40;5.68;;;;;;;6.41;74.79;99502.81;4995608;28;20031;-75
2021/01/22 02:09:41;;;;;;;15.45;6.03;;;;;;;6.40;74.89;99494.97;4995133;28;20490;-75
2021/01/22 02:12:08;;;;;;;11.55;6.28;;;;;;;6.43;74.60;99494.78;4995315;28;20539;-75
2021/01/22 02:14:36;;;;;;;12.75;6.30;;;;;;;6.43;74.61;99500.09;4961650;28;20066;-75
2021/01/22 02:17:03;;;;;;;11.00;5.65;;;;;;;6.30;74.85;99484.88;4995065;28;20027;-74
2021/01/22 02:19:50;;;;;;;13.13;6.30;;;;;;;6.37;74.84;99492.47;4994474;28;20468;-76
2021/01/22 02:22:16;;;;;;;12.43;5.93;;;;;;;6.42;74.70;99493.09;4995063;28;20518;-76
2021/01/22 02:24:42;;;;;;;13.10;6.22;;;;;;;6.44;74.78;99496.50;4977425;28;20129;-77
2021/01/22 02:27:09;;;;;;;10.23;5.60;;;;;;;6.38;74.79;99488.91;4977626;28;20038;-77
2021/01/22 02:29:37;;;;;;;11.25;5.65;;;;;;;6.43;74.98;99485.03;4994494;28;20042;-78
2021/01/22 02:32:08;;;;;;;10.60;5.72;;;;;;;6.53;74.58;99485.38;4977421;28;20069;-74
2021/01/22 02:34:37;;;;;;;12.05;5.75;;;;;;;6.50;74.70;99477.63;4994978;28;20037;-74
2021/01/22 02:37:06;;;;;;;9.70;5.63;;;;;;;6.51;74.20;99474.03;4994396;28;20137;-75
2021/01/22 02:39:35;;;;;;;12.85;5.63;;;;;;;6.39;74.30;99461.47;4994411;28;20121;-75
2021/01/22 02:42:03;;;;;;;11.43;5.40;;;;;;;6.59;74.38;99471.81;4994725;28;20036;-75
2021/01/22 02:44:30;;;;;;;11.43;5.30;;;;;;;6.57;74.31;99481.66;4994785;28;20030;-74
2021/01/22 02:46:57;;;;;;;11.70;5.43;;;;;;;6.35;74.09;99434.28;4976761;28;20077;-74
2021/01/22 02:49:22;;;;;;;9.75;4.60;;;;;;;6.61;74.22;99461.97;4994655;28;20034;-74
2021/01/22 02:51:48;;;;;;;9.57;4.82;;;;;;;6.58;73.94;99441.81;4976833;28;20078;-75
2021/01/22 02:54:14;;;;;;;9.05;4.85;;;;;;;6.58;74.43;99455.06;4994532;28;20038;-75
2021/01/22 02:56:46;;;;;;;7.82;4.53;;;;;;;6.59;74.31;99443.53;4977016;28;20042;-75
2021/01/22 02:59:30;;;;;;;11.15;4.90;;;;;;;6.59;74.36;99443.53;4994362;28;20030;-75
2021/01/22 03:02:13;;;;;;;9.23;4.85;;;;;;;6.63;74.41;99454.78;4993959;28;20053;-75
2021/01/22 03:04:40;;;;;;;11.50;4.57;;;;;;;6.63;74.31;99444.19;4976554;28;20042;-75
2021/01/22 03:07:12;;;;;;;11.18;4.80;;;;;;;6.55;74.48;99441.13;4994455;28;20042;-76
2021/01/22 03:09:43;;;;;;;11.45;4.63;;;;;;;6.58;74.65;99427.72;4993733;28;20034;-76
2021/01/22 03:12:10;;;;;;;10.65;4.65;;;;;;;6.65;74.19;99420.25;4994637;28;20353;-74
2021/01/22 03:14:39;;;;;;;6.65;4.00;;;;;;;6.59;74.25;99413.53;4993899;28;20109;-76
2021/01/22 03:17:05;;;;;;;7.93;4.30;;;;;;;6.64;73.90;99418.53;4994260;28;20072;-75
2021/01/22 03:19:44;;;;;;;10.48;3.90;;;;;;;6.53;73.56;99388.22;4960438;28;20043;-74
2021/01/22 03:22:09;;;;;;;7.35;3.80;;;;;;;6.71;73.42;99404.00;4993958;28;20035;-75
2021/01/22 03:24:35;;;;;;;9.85;3.92;;;;;;;6.79;73.46;99422.97;4944408;28;20046;-75
2021/01/22 03:27:00;;;;;;;7.65;4.35;;;;;;;6.58;73.57;99387.97;4976494;28;20038;-76
2021/01/22 03:29:26;;;;;;;8.00;3.97;;;;;;;6.60;73.78;99391.38;4976844;28;20066;-75
2021/01/22 03:31:51;;;;;;;9.60;4.15;;;;;;;6.77;73.86;99419.56;4992973;28;20113;-75
2021/01/22 03:34:17;;;;;;;9.55;3.70;;;;;;;6.82;73.27;99436.88;4960211;28;20065;-78
2021/01/22 03:36:42;;;;;;;8.10;3.90;;;;;;;6.80;73.53;99422.03;4993071;28;20078;-78
2021/01/22 03:39:08;;;;;;;6.95;3.55;;;;;;;6.70;73.59;99412.91;4976476;28;20050;-77
2021/01/22 03:41:33;;;;;;;8.93;3.75;;;;;;;6.78;73.34;99416.81;4960505;28;20034;-84
2021/01/22 03:43:58;;;;;;;7.85;3.70;;;;;;;6.81;73.28;99415.78;4993743;28;20037;-83
2021/01/22 03:46:24;;;;;;;7.05;3.67;;;;;;;6.74;73.04;99401.16;4976592;28;20054;-74
2021/01/22 03:48:49;;;;;;;9.25;3.88;;;;;;;6.84;73.03;99400.53;4993426;28;20400;-75
2021/01/22 03:51:15;;;;;;;8.10;3.83;;;;;;;6.78;72.92;99384.16;4976379;28;20038;-75
2021/01/22 03:53:40;;;;;;;6.70;3.50;;;;;;;6.79;72.92;99384.06;4975899;28;20487;-73
2021/01/22 03:56:06;;;;;;;7.32;3.40;;;;;;;6.88;72.87;99401.22;4976452;28;20069;-77
2021/01/22 03:58:31;;;;;;;9.77;3.70;;;;;;;6.83;72.75;99380.28;4976399;28;20041;-77
2021/01/22 04:00:57;;;;;;;9.18;4.38;;;;;;;6.83;72.94;99392.69;4976019;28;20070;-77
2021/01/22 04:03:23;;;;;;;7.25;3.75;;;;;;;6.59;72.83;99353.44;4993882;28;20049;-77
2021/01/22 04:05:48;;;;;;;9.18;3.90;;;;;;;6.78;73.04;99384.16;4993319;28;20054;-77
2021/01/22 04:08:14;;;;;;;6.22;3.13;;;;;;;6.58;72.56;99337.63;4993375;28;20078;-74
2021/01/22 04:10:39;;;;;;;8.65;4.13;;;;;;;6.87;72.67;99383.63;4993041;28;20049;-75
2021/01/22 04:13:05;;;;;;;7.75;4.13;;;;;;;6.80;72.61;99374.31;4993621;28;20468;-75
2021/01/22 04:15:30;;;;;;;8.48;3.35;;;;;;;6.94;72.30;99400.00;4993399;28;20031;-75
2021/01/22 04:17:56;;;;;;;9.73;3.50;;;;;;;6.81;72.49;99370.72;4975883;28;20464;-74
2021/01/22 04:20:21;;;;;;;6.22;3.22;;;;;;;6.90;71.97;99359.56;4993249;28;20495;-74
2021/01/22 04:22:51;;;;;;;6.95;3.53;;;;;;;7.00;71.89;99370.50;4992847;28;20039;-74
2021/01/22 04:25:18;;;;;;;10.55;3.00;;;;;;;6.73;71.72;99322.59;4960048;28;20046;-74
2021/01/22 04:27:44;;;;;;;8.93;3.50;;;;;;;7.01;72.02;99369.53;4975655;28;20045;-73
2021/01/22 04:30:10;;;;;;;7.68;3.08;;;;;;;6.79;71.88;99346.97;4976095;28;20121;-74
2021/01/22 04:32:36;;;;;;;6.53;3.08;;;;;;;6.94;71.98;99368.19;4993210;28;20039;-73
2021/01/22 04:35:02;;;;;;;9.65;3.38;;;;;;;7.02;72.22;99379.19;4992769;28;20049;-75
2021/01/22 04:37:28;;;;;;;10.65;3.72;;;;;;;6.86;72.16;99360.72;4959759;28;20081;-74
2021/01/22 04:39:53;;;;;;;8.75;3.92;;;;;;;7.06;71.90;99368.34;4975456;28;20444;-75
2021/01/22 04:42:19;;;;;;;8.00;3.28;;;;;;;7.08;71.94;99360.28;4976293;28;20068;-73
2021/01/22 04:44:45;;;;;;;10.00;4.28;;;;;;;6.85;71.87;99316.56;4979071;28;20034;-74
2021/01/22 04:47:11;;;;;;;9.10;4.18;;;;;;;6.92;71.72;99330.31;4996721;28;20117;-73
2021/01/22 04:49:38;;;;;;;6.55;3.38;;;;;;;6.99;71.88;99350.22;4963279;28;20456;-77
2021/01/22 04:52:09;;;;;;;6.75;3.40;;;;;;;7.08;71.83;99341.72;4962913;28;20038;-75
2021/01/22 04:54:37;;;;;;;6.95;3.22;;;;;;;7.07;71.71;99346.16;4996674;28;20034;-76
2021/01/22 04:57:06;;;;;;;8.70;3.55;;;;;;;6.81;71.81;99300.00;4996478;28;20061;-76
2021/01/22 04:59:51;;;;;;;7.68;3.22;;;;;;;7.01;72.03;99346.53;4979516;28;20403;-78
2021/01/22 05:02:20;;;;;;;8.82;3.10;;;;;;;6.89;72.26;99323.41;4996476;28;20030;-78
2021/01/22 05:04:46;;;;;;;8.13;3.05;;;;;;;6.89;71.78;99323.41;4978773;28;20047;-76
2021/01/22 05:07:12;;;;;;;5.85;2.92;;;;;;;7.04;71.70;99348.13;4979006;28;20038;-73
2021/01/22 05:09:39;;;;;;;6.72;3.13;;;;;;;6.82;71.83;99308.81;4996505;28;20085;-72
2021/01/22 05:12:05;;;;;;;8.95;3.13;;;;;;;6.98;71.97;99335.25;4978636;28;20399;-72
2021/01/22 05:14:35;;;;;;;8.07;3.08;;;;;;;7.08;71.63;99347.03;4996428;28;20042;-73
2021/01/22 05:17:12;;;;;;;6.80;3.17;;;;;;;6.80;71.66;99322.16;4996031;28;20101;-76
2021/01/22 05:19:39;;;;;;;6.85;3.15;;;;;;;6.93;71.74;99345.28;4978804;28;20030;-75
2021/01/22 05:22:11;;;;;;;6.50;3.20;;;;;;;6.92;72.26;99348.88;4978864;28;20042;-74
2021/01/22 05:24:36;;;;;;;5.38;3.22;;;;;;;6.87;72.29;99357.13;4996182;28;20124;-75
2021/01/22 05:27:13;;;;;;;7.97;3.13;;;;;;;6.72;72.97;99364.16;4995769;28;20028;-74
2021/01/22 05:29:41;;;;;;;9.07;3.50;;;;;;;6.74;72.89;99361.41;4978593;28;20030;-75
2021/01/22 05:32:28;;;;;;;7.93;3.65;;;;;;;6.67;73.03;99360.94;4996069;28;20047;-74
2021/01/22 05:34:54;;;;;;;7.70;3.58;;;;;;;6.44;73.24;99332.25;4978204;28;20053;-76
2021/01/22 05:37:20;;;;;;;7.57;3.42;;;;;;;6.67;73.04;99350.34;4995532;28;20427;-75
2021/01/22 05:39:46;;;;;;;8.75;3.25;;;;;;;6.62;73.34;99355.03;4995414;28;20069;-78
2021/01/22 05:42:12;;;;;;;7.95;3.17;;;;;;;6.70;73.12;99370.50;4978686;28;20038;-73
2021/01/22 05:44:52;;;;;;;6.30;3.50;;;;;;;6.62;73.59;99368.28;4995800;28;20088;-75
2021/01/22 05:47:18;;;;;;;10.93;4.22;;;;;;;6.70;73.24;99366.03;4995598;28;20041;-74
2021/01/22 05:50:02;;;;;;;8.05;3.83;;;;;;;6.67;73.28;99368.88;4995591;28;20034;-74
2021/01/22 05:52:28;;;;;;;7.63;3.20;;;;;;;6.67;73.15;99363.59;4995916;28;20072;-76
2021/01/22 05:54:53;;;;;;;6.55;3.25;;;;;;;6.51;73.87;99355.66;4977027;28;20062;-77
2021/01/22 05:57:19;;;;;;;8.55;3.40;;;;;;;6.57;73.73;99354.47;4978178;28;20034;-77
2021/01/22 05:59:45;;;;;;;7.07;3.17;;;;;;;6.59;73.21;99337.53;4978233;28;20089;-77
2021/01/22 06:02:31;;;;;;;6.85;3.42;;;;;;;6.66;73.01;99338.03;4995011;28;20060;-75
2021/01/22 06:05:13;;;;;;;6.68;3.08;;;;;;;6.76;73.11;99356.91;4977868;28;20380;-74
2021/01/22 06:07:41;;;;;;;9.10;3.75;;;;;;;6.76;73.72;99354.25;4977898;28;20038;-78
2021/01/22 06:10:22;;;;;;;9.13;3.40;;;;;;;6.52;73.02;99295.56;4977524;28;20823;-77
2021/01/22 06:12:52;;;;;;;6.80;3.22;;;;;;;6.85;72.79;99359.88;4977976;28;20443;-79
2021/01/22 06:15:21;;;;;;;8.48;3.15;;;;;;;6.79;72.99;99354.91;4995611;28;20088;-78
2021/01/22 06:17:52;;;;;;;6.13;3.15;;;;;;;6.81;72.94;99353.00;4995285;28;20069;-75
2021/01/22 06:20:22;;;;;;;9.20;3.42;;;;;;;6.82;72.80;99356.53;4977969;28;20100;-73
2021/01/22 06:23:10;;;;;;;6.43;3.00;;;;;;;6.51;72.93;99312.41;4995110;28;20030;-77
2021/01/22 06:25:37;;;;;;;6.03;3.35;;;;;;;6.78;73.12;99363.81;4994989;28;20340;-76
2021/01/22 06:28:06;;;;;;;6.18;3.33;;;;;;;6.81;72.54;99353.00;4977791;28;20027;-74
2021/01/22 06:30:37;;;;;;;7.22;3.30;;;;;;;6.74;71.70;99306.59;4995184;28;20027;-74
2021/01/22 06:33:05;;;;;;;9.57;4.00;;;;;;;6.82;71.95;99328.22;4994980;28;20038;-74
2021/01/22 06:35:33;;;;;;;11.30;3.90;;;;;;;7.03;71.54;99343.78;4994916;28;20026;-77
2021/01/22 06:38:00;;;;;;;7.53;3.40;;;;;;;7.02;71.88;99336.78;4995011;28;20050;-75
2021/01/22 06:40:26;;;;;;;9.10;3.80;;;;;;;6.87;71.21;99304.94;4977648;28;20038;-77
2021/01/22 06:42:53;;;;;;;6.18;3.40;;;;;;;7.09;71.45;99346.94;4961245;28;20375;-76
2021/01/22 06:45:20;;;;;;;6.72;3.45;;;;;;;7.16;71.11;99347.41;4977365;28;20034;-74
2021/01/22 06:47:59;;;;;;;6.13;3.50;;;;;;;7.13;71.10;99339.63;4994785;28;20030;-78
2021/01/22 06:50:25;;;;;;;8.25;3.42;;;;;;;7.16;70.87;99352.72;4992975;28;20026;-76
2021/01/22 06:53:16;;;;;;;7.93;3.58;;;;;;;7.20;70.78;99351.56;4959403;28;20125;-77
2021/01/22 06:55:51;;;;;;;7.80;3.70;;;;;;;7.19;70.75;99352.53;4994572;28;20015;-74
2021/01/22 06:58:30;;;;;;;6.55;3.53;;;;;;;7.33;69.88;99344.56;4993840;28;20026;-74
2021/01/22 07:00:57;;;;;;;9.10;4.25;;;;;;;7.36;70.07;99348.84;4994072;28;20022;-73
2021/01/22 07:03:35;;;;;;;6.97;3.55;;;;;;;7.42;69.64;99344.00;4994454;28;20034;-72
2021/01/22 07:06:02;;;;;;;7.10;3.17;;;;;;;7.47;69.51;99341.94;4994184;28;20033;-73
2021/01/22 07:08:49;;;;;;;6.30;3.33;;;;;;;7.42;69.82;99343.16;4998024;28;20066;-76
2021/01/22 07:11:15;;;;;;;9.02;4.72;;;;;;;7.38;69.81;99339.84;4994118;28;20084;-76
2021/01/22 07:13:42;;;;;;;8.48;3.60;;;;;;;7.33;69.11;99312.72;4977175;28;20027;-72
2021/01/22 07:16:21;;;;;;;9.30;3.60;;;;;;;7.43;69.46;99323.63;4993966;28;20030;-71
2021/01/22 07:18:58;;;;;;;5.40;3.15;;;;;;;7.50;69.23;99332.94;4994220;28;20034;-72
2021/01/22 07:21:41;;;;;;;9.13;3.72;;;;;;;7.48;69.08;99324.22;4976779;28;20034;-72
2021/01/22 07:24:12;;;;;;;8.52;4.00;;;;;;;7.53;69.32;99334.53;4977821;28;20030;-70
2021/01/22 07:26:45;;;;;;;7.85;3.38;;;;;;;7.55;68.76;99333.50;4994274;28;20058;-71
2021/01/22 07:29:16;;;;;;;12.98;3.90;;;;;;;7.51;68.95;99325.81;4993772;28;20379;-71
2021/01/22 07:32:27;;;;;;;7.15;3.30;;;;;;;7.58;68.73;99338.63;4976413;28;20038;-72
2021/01/22 07:34:52;;;;;;;9.65;4.15;;;;;;;7.43;68.74;99315.66;4957698;28;20117;-72
2021/01/22 07:37:23;;;;;;;5.80;3.10;;;;;;;7.64;68.78;99342.69;4993426;28;20192;-72
2021/01/22 07:39:50;;;;;;;7.13;3.40;;;;;;;7.58;68.43;99322.69;4993774;28;20121;-73
2021/01/22 07:42:18;;;;;;;10.90;3.90;;;;;;;7.77;68.16;99327.69;4976246;28;20507;-73
2021/01/22 07:44:46;;;;;;;7.72;3.50;;;;;;;7.74;68.09;99327.91;4994027;28;20033;-73
2021/01/22 07:47:27;;;;;;;7.43;3.88;;;;;;;7.82;67.82;99333.59;4993671;28;20041;-73
2021/01/22 07:49:54;;;;;;;11.45;3.65;;;;;;;7.78;67.91;99331.19;4976443;28;20029;-72
2021/01/22 07:52:19;;;;;;;9.45;3.95;;;;;;;7.84;67.34;99318.41;4976093;28;20042;-73
2021/01/22 07:54:45;;;;;;;8.15;3.60;;;;;;;7.96;67.06;99333.53;4993731;28;20036;-73
2021/01/22 07:57:15;;;;;;;11.20;3.85;;;;;;;7.97;67.27;99345.88;4993473;28;20114;-73
2021/01/22 07:59:41;;;;;;;11.32;3.85;;;;;;;8.06;66.92;99349.75;4993547;28;20030;-76
2021/01/22 08:02:12;;;;;;;9.25;4.50;;;;;;;8.08;66.50;99346.97;4960262;28;20061;-74
2021/01/22 08:04:37;;;;;;;9.35;4.28;;;;;;;8.17;66.17;99360.53;4993547;28;20030;-75
2021/01/22 08:07:03;;;;;;;13.65;4.57;;;;;;;8.07;66.33;99347.94;4993384;28;20034;-74
2021/01/22 08:09:28;;;;;;;14.02;4.43;;;;;;;8.07;66.49;99339.97;4993509;28;20493;-75
2021/01/22 08:12:07;;;;;;;8.65;3.65;;;;;;;8.22;65.59;99339.00;4993356;28;20038;-75
2021/01/22 08:14:32;;;;;;;8.70;3.40;;;;;;;8.38;65.91;99363.63;4993774;28;20077;-75
2021/01/22 08:16:59;;;;;;;7.97;3.40;;;;;;;8.43;65.72;99364.19;4993647;28;20022;-77
2021/01/22 08:19:25;;;;;;;12.45;4.22;;;;;;;8.49;65.55;99370.88;4997199;28;20035;-76
2021/01/22 08:21:52;;;;;;;11.80;3.60;;;;;;;8.52;65.75;99376.88;4997364;28;20466;-75
2021/01/22 08:24:19;;;;;;;14.75;3.95;;;;;;;8.57;65.68;99371.25;4997075;28;20105;-75
2021/01/22 08:26:46;;;;;;;10.85;3.97;;;;;;;8.51;66.20;99375.19;4997325;28;20033;-74
2021/01/22 08:29:12;;;;;;;10.27;4.00;;;;;;;8.55;65.86;99373.16;4997035;28;20034;-76
2021/01/22 08:31:38;;;;;;;14.43;4.28;;;;;;;8.57;65.58;99356.16;4997349;28;20084;-76
2021/01/22 08:34:05;;;;;;;11.57;3.78;;;;;;;8.63;65.26;99351.41;4997020;28;20034;-76
2021/01/22 08:36:31;;;;;;;14.18;3.78;;;;;;;8.67;65.03;99355.53;4996792;28;20122;-74
2021/01/22 08:38:58;;;;;;;11.10;3.55;;;;;;;8.66;64.69;99319.28;4996887;28;20130;-75
2021/01/22 08:41:25;;;;;;;13.02;4.13;;;;;;;8.94;64.71;99351.03;4996823;28;20034;-75
2021/01/22 08:43:52;;;;;;;9.82;3.97;;;;;;;9.06;64.15;99342.22;4997431;28;20360;-74
2021/01/22 08:46:19;;;;;;;13.60;4.03;;;;;;;9.18;63.58;99341.41;4979331;28;20491;-74
2021/01/22 08:48:45;;;;;;;8.82;3.78;;;;;;;9.14;63.46;99315.94;4996830;28;20475;-76
2021/01/22 08:51:11;;;;;;;15.80;4.32;;;;;;;9.44;62.81;99341.38;4996463;28;20105;-74
2021/01/22 08:53:49;;;;;;;11.80;3.88;;;;;;;9.54;62.74;99339.78;4996688;28;20093;-74
2021/01/22 08:56:16;;;;;;;16.77;4.07;;;;;;;9.66;62.45;99336.25;4996684;28;20145;-75
2021/01/22 08:59:02;;;;;;;12.50;4.05;;;;;;;9.59;62.55;99323.50;4996714;28;20030;-75
2021/01/22 09:01:46;;;;;;;21.63;4.07;;;;;;;9.71;62.06;99335.94;4996709;28;20062;-75
2021/01/22 09:04:17;;;;;;;10.93;3.50;;;;;;;9.69;62.27;99344.03;4996605;28;20463;-76
2021/01/22 09:06:50;;;;;;;6.72;3.13;;;;;;;9.69;62.04;99328.06;4996492;28;20030;-74
2021/01/22 09:09:16;;;;;;;;;;;;;;;9.71;61.60;99336.78;4996685;28;20037;-74
2021/01/22 09:11:42;;;;;;;10.30;3.25;;;;;;;9.70;62.22;99348.38;4996570;28;19914;-74
2021/01/22 09:14:07;;;;;;;11.15;3.13;;;;;;;9.61;62.43;99337.53;4996233;28;20092;-75
2021/01/22 09:16:45;;;;;;;7.90;3.17;;;;;;;9.67;61.73;99339.78;4979138;28;20034;-73
2021/01/22 09:19:11;;;;;;;12.30;3.67;;;;;;;9.65;61.95;99339.91;4996249;28;20104;-72
2021/01/22 09:21:55;;;;;;;8.32;3.05;;;;;;;9.56;62.06;99323.72;4996304;28;20501;-72
2021/01/22 09:24:20;;;;;;;15.02;3.47;;;;;;;9.50;62.15;99306.34;4995990;28;20035;-74
2021/01/22 09:26:46;;;;;;;15.45;3.38;;;;;;;9.65;61.97;99323.03;4996045;28;20030;-72
2021/01/22 09:29:11;;;;;;;12.45;3.50;;;;;;;9.78;61.95;99336.34;4977578;28;20030;-73
2021/01/22 09:31:37;;;;;;;15.75;3.47;;;;;;;9.84;61.76;99328.75;4995895;28;20049;-73
2021/01/22 09:34:02;;;;;;;11.50;3.05;;;;;;;9.71;61.89;99310.16;4995942;28;20034;-72
2021/01/22 09:36:28;;;;;;;10.13;3.08;;;;;;;9.84;62.10;99328.75;4978263;28;20131;-72
2021/01/22 09:38:53;;;;;;;17.00;4.13;;;;;;;9.82;61.91;99322.69;4978799;28;20084;-72
2021/01/22 09:41:19;;;;;;;9.20;3.17;;;;;;;9.77;61.90;99300.03;4995633;28;20042;-72
2021/01/22 09:43:44;;;;;;;8.35;2.80;;;;;;;9.62;61.53;99273.53;4995799;28;20116;-72
2021/01/22 09:46:10;;;;;;;7.13;2.80;;;;;;;9.61;61.44;99270.97;4978244;28;20035;-72
2021/01/22 09:48:35;;;;;;;7.93;2.83;;;;;;;9.82;61.15;99296.06;4995697;28;20464;-72
2021/01/22 09:51:01;;;;;;;6.25;3.15;;;;;;;9.60;61.29;99264.81;4978508;28;20403;-72
2021/01/22 09:53:26;;;;;;;10.82;3.38;;;;;;;9.73;61.74;99288.72;4978159;28;20058;-72
2021/01/22 09:55:52;;;;;;;8.55;2.92;;;;;;;9.53;61.78;99266.19;4995561;28;20038;-72
2021/01/22 09:58:17;;;;;;;12.32;3.15;;;;;;;9.64;62.13;99274.25;4995227;28;20045;-71
2021/01/22 10:00:42;;;;;;;13.02;3.35;;;;;;;9.56;61.74;99250.03;4996038;28;20038;-71
2021/01/22 10:03:08;;;;;;;15.27;3.90;;;;;;;9.57;62.13;99251.72;4995478;28;20037;-74
2021/01/22 10:05:33;;;;;;;7.60;3.17;;;;;;;9.84;61.96;99277.28;4995449;28;20069;-72
2021/01/22 10:07:59;;;;;;;7.85;3.38;;;;;;;9.83;62.09;99279.13;4978364;28;20479;-71
2021/01/22 10:10:24;;;;;;;8.38;2.95;;;;;;;9.64;62.27;99239.66;4995050;28;20037;-72
2021/01/22 10:12:50;;;;;;;8.90;3.05;;;;;;;9.88;62.16;99266.31;4977607;28;20125;-73
2021/01/22 10:15:16;;;;;;;8.10;3.25;;;;;;;9.80;61.58;99252.72;4995211;28;20039;-73
2021/01/22 10:17:41;;;;;;;11.85;3.40;;;;;;;9.90;61.61;99258.22;4995273;28;20538;-73
2021/01/22 10:20:08;;;;;;;11.38;3.63;;;;;;;9.80;61.72;99238.53;4995069;28;20038;-71
2021/01/22 10:22:33;;;;;;;13.65;3.63;;;;;;;10.06;61.33;99264.13;4978142;28;20042;-71
2021/01/22 10:24:59;;;;;;;12.63;3.85;;;;;;;9.77;61.74;99222.81;4977928;28;20038;-72
2021/01/22 10:27:24;;;;;;;11.23;3.50;;;;;;;9.91;61.77;99242.13;4994627;28;20430;-72
2021/01/22 10:29:50;;;;;;;11.75;3.30;;;;;;;10.01;61.89;99255.63;4995046;28;20031;-72
2021/01/22 10:32:15;;;;;;;7.95;3.03;;;;;;;9.86;61.87;99224.78;4994743;28;20038;-72
2021/01/22 10:34:40;;;;;;;16.80;3.80;;;;;;;10.03;61.89;99248.34;4994946;28;20508;-72
2021/01/22 10:37:06;;;;;;;11.98;4.03;;;;;;;9.98;61.80;99246.03;4994579;28;20134;-72
2021/01/22 10:39:31;;;;;;;11.65;3.42;;;;;;;9.91;61.84;99236.78;4994556;28;20042;-73
2021/01/22 10:41:57;;;;;;;15.63;3.55;;;;;;;10.03;61.78;99254.53;4994169;28;20050;-72
2021/01/22 10:44:23;;;;;;;11.00;3.25;;;;;;;9.96;61.53;99241.78;4977333;28;20030;-72
2021/01/22 10:46:48;;;;;;;10.65;3.30;;;;;;;9.98;61.98;99245.19;4994977;28;20065;-72
2021/01/22 10:49:14;;;;;;;8.68;3.10;;;;;;;9.75;61.55;99201.63;4994648;28;20034;-73
2021/01/22 10:51:39;;;;;;;12.25;4.32;;;;;;;9.96;61.82;99239.13;4994372;28;20034;-72
2021/01/22 10:54:05;;;;;;;9.43;3.60;;;;;;;9.96;61.85;99231.13;4977242;28;20057;-72
2021/01/22 10:56:30;;;;;;;9.70;3.40;;;;;;;10.03;61.98;99232.38;4994466;28;20037;-71
2021/01/22 10:58:56;;;;;;;13.95;3.92;;;;;;;9.65;62.14;99187.25;4977545;28;20486;-71
2021/01/22 11:01:21;;;;;;;9.68;3.58;;;;;;;9.69;61.97;99186.91;4994108;28;20423;-72
2021/01/22 11:03:47;;;;;;;9.30;3.60;;;;;;;9.74;62.35;99203.41;4994178;28;20038;-73
2021/01/22 11:06:12;;;;;;;8.65;3.40;;;;;;;9.97;62.62;99238.16;4993964;28;20400;-71
2021/01/22 11:08:37;;;;;;;14.27;3.70;;;;;;;9.93;62.95;99231.34;4977084;28;20036;-72
2021/01/22 11:11:03;;;;;;;8.93;3.55;;;;;;;9.93;62.92;99221.53;4976788;28;20054;-73
2021/01/22 11:13:28;;;;;;;7.88;3.83;;;;;;;9.96;63.09;99226.66;4993879;28;20035;-74
2021/01/22 11:15:54;;;;;;;8.27;3.63;;;;;;;9.79;62.92;99191.56;4994158;28;20037;-72
2021/01/22 11:18:20;;;;;;;11.20;3.60;;;;;;;9.73;63.53;99177.72;4976659;28;20443;-73
2021/01/22 11:20:45;;;;;;;7.47;3.20;;;;;;;9.93;63.22;99194.06;4994258;28;20030;-71
2021/01/22 11:23:11;;;;;;;6.97;2.95;;;;;;;10.04;62.81;99202.97;4993996;28;20035;-73
2021/01/22 11:25:36;;;;;;;8.90;3.00;;;;;;;9.88;63.04;99181.09;4993903;28;20046;-72
2021/01/22 11:28:02;;;;;;;8.07;3.28;;;;;;;9.91;63.03;99174.69;4993876;28;20391;-72
2021/01/22 11:30:27;;;;;;;7.00;3.45;;;;;;;9.97;63.14;99190.22;4993854;28;20502;-71
2021/01/22 11:32:53;;;;;;;10.50;3.10;;;;;;;9.77;63.39;99145.56;4976604;28;20113;-71
2021/01/22 11:35:18;;;;;;;8.85;3.38;;;;;;;9.70;63.50;99139.84;4976231;28;20129;-72
2021/01/22 11:37:46;;;;;;;8.70;2.85;;;;;;;9.91;63.76;99164.88;4960253;28;20089;-71
2021/01/22 11:40:12;;;;;;;10.98;3.92;;;;;;;9.90;63.57;99167.66;4993616;28;20038;-72
2021/01/22 11:42:38;;;;;;;9.63;3.13;;;;;;;9.63;63.57;99112.81;4976210;28;20488;-73